Time;durP1;ratioP1;P1;durP2;ratioP2;P2;SDS_P1;SDS_P2;PMS_P1;PMS_P2;Temp;Humidity;BMP_temperature;BMP_pressure;BME280_temperature;BME280_humidity;BME280_pressure;Samples;Min_cycle;Max_cycle;Signal;HPM_P1;HPM_P2
2023/05/16 00:01:35;;;;;;;14.13;3.10;;;;;;;9.31;88.73;101794.38;4986664;28;20046;-71
2023/05/16 00:04:02;;;;;;;13.57;3.60;;;;;;;9.30;88.22;101799.88;4986941;28;20482;-72
2023/05/16 00:06:27;;;;;;;10.07;2.65;;;;;;;9.27;88.15;101810.91;4989300;28;20127;-71
2023/05/16 00:08:53;;;;;;;20.40;3.75;;;;;;;9.20;87.76;101800.34;5004429;28;20034;-71
2023/05/16 00:11:18;;;;;;;16.35;4.47;;;;;;;9.20;88.13;101797.66;4989358;28;20035;-71
2023/05/16 00:13:45;;;;;;;15.25;3.42;;;;;;;9.14;87.80;101797.97;4997952;28;20025;-71
2023/05/16 00:16:13;;;;;;;17.65;3.42;;;;;;;9.04;88.31;101807.50;5006125;28;20116;-71
2023/05/16 00:18:38;;;;;;;11.80;3.17;;;;;;;8.99;88.40;101814.13;4988641;28;20516;-72
2023/05/16 00:21:04;;;;;;;12.13;2.50;;;;;;;8.99;87.77;101806.88;4989825;28;20105;-70
2023/05/16 00:23:30;;;;;;;12.15;3.47;;;;;;;8.96;88.27;101807.03;4989948;28;20038;-72
2023/05/16 00:25:56;;;;;;;13.95;2.92;;;;;;;8.82;88.23;101809.56;4988809;28;20034;-71
2023/05/16 00:28:21;;;;;;;13.32;2.80;;;;;;;8.76;88.51;101808.00;4990013;28;20038;-71
2023/05/16 00:30:47;;;;;;;18.27;3.30;;;;;;;8.72;88.77;101803.72;4989998;28;20056;-71
2023/05/16 00:33:14;;;;;;;14.35;2.80;;;;;;;8.64;87.89;101801.38;4988246;28;20117;-71
2023/05/16 00:35:39;;;;;;;13.50;2.80;;;;;;;8.59;88.96;101805.28;4988674;28;20387;-70
2023/05/16 00:38:05;;;;;;;17.75;3.40;;;;;;;8.52;88.65;101809.22;4986692;28;20066;-71
2023/05/16 00:40:31;;;;;;;14.90;2.85;;;;;;;8.43;88.91;101806.00;4997989;28;20322;-71
2023/05/16 00:42:57;;;;;;;10.60;2.92;;;;;;;8.37;89.13;101810.84;4988931;28;20395;-71
2023/05/16 00:45:22;;;;;;;13.07;2.58;;;;;;;8.33;89.35;101815.50;4990164;28;20053;-71
2023/05/16 00:47:49;;;;;;;11.55;2.17;;;;;;;8.30;89.12;101810.25;4989471;28;20030;-71
2023/05/16 00:50:15;;;;;;;12.02;3.78;;;;;;;8.28;89.53;101809.41;4989594;28;20100;-71
2023/05/16 00:52:42;;;;;;;8.85;2.33;;;;;;;8.26;88.83;101805.03;4987462;28;20117;-71
2023/05/16 00:55:09;;;;;;;17.33;3.25;;;;;;;8.17;88.79;101807.22;4988828;28;20582;-71
2023/05/16 00:57:36;;;;;;;14.25;3.00;;;;;;;8.12;89.08;101806.56;4988916;28;20022;-72
2023/05/16 01:00:04;;;;;;;8.50;2.53;;;;;;;8.09;88.89;101814.81;4988062;28;20038;-71
2023/05/16 01:02:30;;;;;;;9.55;2.70;;;;;;;8.02;89.12;101810.66;4992031;28;20037;-72
2023/05/16 01:04:56;;;;;;;11.30;2.63;;;;;;;8.01;89.23;101814.28;5007856;28;20179;-71
2023/05/16 01:07:22;;;;;;;15.27;3.67;;;;;;;7.93;89.79;101816.50;5005884;28;20502;-71
2023/05/16 01:09:48;;;;;;;14.80;2.80;;;;;;;7.90;89.13;101822.91;5005158;28;20022;-71
2023/05/16 01:12:20;;;;;;;14.05;2.83;;;;;;;7.87;89.44;101822.16;4987500;28;20197;-71
2023/05/16 01:14:55;;;;;;;;;;;;;;;7.90;88.38;101822.03;4989467;28;20117;-71
2023/05/16 01:17:48;;;;;;;9.32;2.42;;;;;;;7.80;89.41;101835.13;4986473;28;19956;-71
2023/05/16 01:20:49;;;;;;;15.20;2.85;;;;;;;7.73;89.37;101827.34;4988890;28;20112;-71
2023/05/16 01:23:17;;;;;;;11.07;2.90;;;;;;;7.65;89.70;101823.16;4956401;28;20491;-71
2023/05/16 01:26:07;;;;;;;17.08;2.60;;;;;;;7.61;89.47;101828.78;4988230;28;20050;-71
2023/05/16 01:28:33;;;;;;;18.27;2.55;;;;;;;7.56;89.49;101820.84;4987467;28;20242;-71
2023/05/16 01:30:59;;;;;;;13.40;2.80;;;;;;;7.50;89.92;101826.53;4988374;28;20354;-71
2023/05/16 01:33:25;;;;;;;13.43;2.40;;;;;;;7.44;89.49;101832.22;4994732;28;20045;-71
2023/05/16 01:36:08;;;;;;;19.00;2.63;;;;;;;7.42;89.52;101831.41;4987512;28;20034;-71
2023/05/16 01:38:40;;;;;;;;;;;;;;;7.41;89.10;101829.63;4988829;28;20062;-71
2023/05/16 01:41:23;;;;;;;8.88;1.90;;;;;;;7.39;89.31;101828.84;4987545;28;19913;-71
2023/05/16 01:43:53;;;;;;;14.75;2.20;;;;;;;7.33;89.75;101829.97;4988441;28;20046;-71
2023/05/16 01:46:28;;;;;;;13.23;2.13;;;;;;;7.26;89.53;101824.88;4988784;28;20093;-71
2023/05/16 01:49:16;;;;;;;9.60;1.98;;;;;;;7.24;89.97;101834.91;4988384;28;20494;-71
2023/05/16 01:51:44;;;;;;;11.63;2.70;;;;;;;7.21;90.65;101832.31;4999800;28;20045;-71
2023/05/16 01:54:13;;;;;;;12.65;2.50;;;;;;;7.18;89.84;101827.94;5007463;28;20062;-71
2023/05/16 01:56:41;;;;;;;9.25;2.60;;;;;;;7.15;90.13;101845.19;4993103;28;20043;-71
2023/05/16 01:59:07;;;;;;;18.48;3.17;;;;;;;7.14;89.91;101842.53;4985973;28;20049;-71
2023/05/16 02:01:33;;;;;;;15.75;2.42;;;;;;;7.09;89.69;101845.44;5003204;28;20050;-71
2023/05/16 02:03:59;;;;;;;8.40;2.05;;;;;;;7.06;90.38;101847.38;4988351;28;20022;-72
2023/05/16 02:06:27;;;;;;;12.27;2.45;;;;;;;7.01;90.24;101850.28;4987383;28;20048;-71
2023/05/16 02:08:54;;;;;;;6.32;2.10;;;;;;;6.98;90.25;101853.09;4986169;28;20347;-71
2023/05/16 02:11:20;;;;;;;9.00;1.85;;;;;;;6.96;90.83;101856.84;4992047;28;20038;-71
2023/05/16 02:13:45;;;;;;;15.35;2.97;;;;;;;6.92;90.23;101863.31;5003070;28;20033;-72
2023/05/16 02:16:10;;;;;;;9.02;1.98;;;;;;;6.88;90.26;101855.31;4987982;28;20068;-71
2023/05/16 02:18:36;;;;;;;15.13;2.30;;;;;;;6.88;90.74;101854.44;4987563;28;20022;-71
2023/05/16 02:21:01;;;;;;;11.30;2.03;;;;;;;6.86;90.90;101857.22;4986176;28;20125;-71
2023/05/16 02:23:27;;;;;;;11.60;2.03;;;;;;;6.83;90.47;101851.03;4987517;28;20266;-71
2023/05/16 02:25:52;;;;;;;14.88;3.47;;;;;;;6.77;90.73;101852.19;4995134;28;20181;-71
2023/05/16 02:28:17;;;;;;;8.88;2.05;;;;;;;6.74;90.93;101854.13;4987553;28;20109;-71
2023/05/16 02:30:43;;;;;;;10.77;1.80;;;;;;;6.70;90.92;101849.75;4987638;28;20064;-71
2023/05/16 02:33:10;;;;;;;18.30;2.55;;;;;;;6.67;91.22;101861.59;5005616;28;20498;-71
2023/05/16 02:35:35;;;;;;;10.43;3.10;;;;;;;6.64;91.29;101851.78;5007361;28;20042;-71
2023/05/16 02:38:01;;;;;;;14.32;3.65;;;;;;;6.65;91.58;101861.66;5001982;28;20064;-72
2023/05/16 02:40:26;;;;;;;13.23;2.25;;;;;;;6.64;91.38;101862.59;4985801;28;20157;-71
2023/05/16 02:42:51;;;;;;;12.75;3.30;;;;;;;6.64;91.58;101873.41;4987680;28;20135;-71
2023/05/16 02:45:17;;;;;;;17.95;2.92;;;;;;;6.62;91.33;101867.19;4985960;28;20042;-70
2023/05/16 02:47:42;;;;;;;18.13;2.60;;;;;;;6.59;91.22;101870.00;4985783;28;20128;-71
2023/05/16 02:50:08;;;;;;;10.55;2.95;;;;;;;6.57;91.10;101873.69;4998362;28;20038;-71
2023/05/16 02:52:33;;;;;;;14.23;2.30;;;;;;;6.56;91.49;101888.16;4992655;28;20030;-71
2023/05/16 02:54:59;;;;;;;15.27;4.13;;;;;;;6.51;91.74;101876.66;4990106;28;20030;-71
2023/05/16 02:57:25;;;;;;;12.02;2.33;;;;;;;6.55;90.84;101879.19;4988271;28;20041;-71
2023/05/16 02:59:50;;;;;;;12.00;2.90;;;;;;;6.53;91.11;101888.31;4987204;28;20046;-71
2023/05/16 03:02:15;;;;;;;14.27;3.60;;;;;;;6.52;91.45;101882.00;4986715;28;20116;-71
2023/05/16 03:04:41;;;;;;;10.48;2.13;;;;;;;6.50;91.59;101885.72;4987524;28;20537;-71
2023/05/16 03:07:06;;;;;;;14.35;3.45;;;;;;;6.47;91.83;101891.22;4984409;28;20030;-71
2023/05/16 03:09:31;;;;;;;6.00;2.40;;;;;;;6.46;91.53;101894.88;4987207;28;20040;-72
2023/05/16 03:11:58;;;;;;;10.90;2.35;;;;;;;6.44;92.14;101900.34;5002335;28;20026;-71
2023/05/16 03:14:24;;;;;;;11.02;2.47;;;;;;;6.41;91.71;101896.88;4985793;28;20100;-71
2023/05/16 03:16:49;;;;;;;9.32;2.47;;;;;;;6.36;91.81;101906.03;4986968;28;20257;-71
2023/05/16 03:19:14;;;;;;;8.55;2.25;;;;;;;6.33;91.93;101899.84;4985664;28;20038;-71
2023/05/16 03:21:40;;;;;;;9.05;2.38;;;;;;;6.34;91.97;101897.13;4984820;28;20432;-70
2023/05/16 03:24:06;;;;;;;13.88;2.53;;;;;;;6.33;92.42;101897.16;4987042;28;20129;-71
2023/05/16 03:26:32;;;;;;;10.95;2.67;;;;;;;6.30;92.69;101898.16;4986542;28;20038;-71
2023/05/16 03:28:58;;;;;;;14.02;2.38;;;;;;;6.29;92.79;101895.50;4986204;28;20500;-71
2023/05/16 03:31:23;;;;;;;12.43;2.10;;;;;;;6.27;92.31;101909.09;4987068;28;20278;-71
2023/05/16 03:33:48;;;;;;;13.82;2.33;;;;;;;6.26;92.80;101901.94;4986802;28;20034;-71
2023/05/16 03:36:14;;;;;;;10.32;2.58;;;;;;;6.23;93.02;101902.03;4986354;28;20057;-71
2023/05/16 03:38:39;;;;;;;17.05;3.58;;;;;;;6.18;93.17;101898.63;4984538;28;20129;-70
2023/05/16 03:41:05;;;;;;;14.48;3.05;;;;;;;6.17;92.95;101907.66;4986908;28;20099;-71
2023/05/16 03:43:30;;;;;;;18.58;3.30;;;;;;;6.17;92.81;101915.78;4989527;28;20056;-71
2023/05/16 03:45:56;;;;;;;11.02;2.70;;;;;;;6.18;92.47;101912.13;4990363;28;20057;-71
2023/05/16 03:48:21;;;;;;;17.35;3.10;;;;;;;6.18;93.00;101922.06;4989939;28;20042;-70
2023/05/16 03:50:46;;;;;;;12.80;2.80;;;;;;;6.19;92.28;101918.41;4991176;28;20042;-70
2023/05/16 03:53:12;;;;;;;8.68;3.00;;;;;;;6.19;92.59;101919.28;4989121;28;20077;-71
2023/05/16 03:55:37;;;;;;;9.05;2.35;;;;;;;6.18;92.93;101922.94;4989206;28;20493;-71
2023/05/16 03:58:03;;;;;;;7.57;2.33;;;;;;;6.20;92.65;101922.88;5005584;28;20046;-71
2023/05/16 04:00:28;;;;;;;11.25;2.63;;;;;;;6.18;92.71;101919.34;4989575;28;20125;-71
2023/05/16 04:02:54;;;;;;;6.18;2.30;;;;;;;6.18;92.88;101927.47;4994723;28;20038;-71
2023/05/16 04:05:19;;;;;;;9.05;2.42;;;;;;;6.18;93.33;101922.94;5005928;28;20175;-71
2023/05/16 04:07:45;;;;;;;14.15;2.70;;;;;;;6.18;92.97;101927.47;4987722;28;20411;-71
2023/05/16 04:10:10;;;;;;;5.70;2.33;;;;;;;6.20;93.25;101933.69;4990161;28;20038;-71
2023/05/16 04:12:36;;;;;;;8.57;2.72;;;;;;;6.19;93.15;101929.22;5004253;28;20088;-71
2023/05/16 04:15:06;;;;;;;11.30;2.42;;;;;;;6.22;92.34;101934.53;4990300;28;20034;-71
2023/05/16 04:17:32;;;;;;;6.35;1.98;;;;;;;6.25;92.62;101934.38;4989751;28;20047;-71
2023/05/16 04:19:57;;;;;;;15.30;2.85;;;;;;;6.24;92.75;101936.22;4990928;28;20343;-71
2023/05/16 04:22:23;;;;;;;15.93;2.45;;;;;;;6.29;92.76;101941.44;4988310;28;20097;-71
2023/05/16 04:24:49;;;;;;;15.07;3.72;;;;;;;6.31;92.54;101942.28;4989973;28;20033;-71
2023/05/16 04:27:14;;;;;;;8.43;2.70;;;;;;;6.32;92.41;101942.22;4989288;28;20038;-71
2023/05/16 04:29:39;;;;;;;10.65;2.63;;;;;;;6.31;92.26;101936.88;4990017;28;20050;-71
2023/05/16 04:32:06;;;;;;;11.85;2.58;;;;;;;6.34;92.83;101944.84;5004897;28;20046;-71
2023/05/16 04:34:32;;;;;;;11.13;3.03;;;;;;;6.34;92.88;101945.78;4988350;28;20119;-71
2023/05/16 04:36:58;;;;;;;11.30;2.92;;;;;;;6.34;92.67;101952.97;4987532;28;20096;-71
2023/05/16 04:39:24;;;;;;;11.20;1.98;;;;;;;6.35;92.72;101954.75;4989774;28;20046;-71
2023/05/16 04:41:50;;;;;;;10.82;3.25;;;;;;;6.37;92.62;101959.16;5005362;28;20261;-70
2023/05/16 04:44:15;;;;;;;9.30;2.60;;;;;;;6.38;92.81;101966.31;5009491;28;20033;-71
2023/05/16 04:46:41;;;;;;;8.43;2.25;;;;;;;6.43;92.33;101960.72;5006518;28;20042;-70
2023/05/16 04:49:07;;;;;;;11.75;2.50;;;;;;;6.46;92.68;101960.63;5006964;28;20025;-71
2023/05/16 04:51:32;;;;;;;11.02;3.42;;;;;;;6.50;92.73;101964.09;4989269;28;20069;-71
2023/05/16 04:53:58;;;;;;;13.82;2.53;;;;;;;6.55;92.10;101972.91;4989739;28;20042;-71
2023/05/16 04:56:23;;;;;;;14.02;4.07;;;;;;;6.57;92.50;101968.31;4989287;28;20056;-71
2023/05/16 04:58:49;;;;;;;8.43;2.65;;;;;;;6.60;91.98;101976.34;4988580;28;20279;-71
2023/05/16 05:01:14;;;;;;;12.48;2.38;;;;;;;6.62;92.73;101977.13;5002094;28;20393;-72
2023/05/16 05:03:40;;;;;;;14.07;2.75;;;;;;;6.63;92.26;101974.41;4988523;28;20463;-71
2023/05/16 05:06:05;;;;;;;6.00;2.60;;;;;;;6.70;92.02;101980.44;4987062;28;20084;-71
2023/05/16 05:08:31;;;;;;;12.57;2.47;;;;;;;6.75;91.67;101986.56;4988294;28;20048;-72
2023/05/16 05:10:56;;;;;;;11.75;3.15;;;;;;;6.78;92.50;101977.47;4989930;28;20024;-71
2023/05/16 05:13:22;;;;;;;7.10;2.28;;;;;;;6.80;92.09;101976.44;4988830;28;20035;-71
2023/05/16 05:15:49;;;;;;;11.95;2.50;;;;;;;6.84;91.40;101975.38;4988734;28;20031;-71
2023/05/16 05:18:15;;;;;;;16.33;2.72;;;;;;;6.87;91.76;101980.69;4988262;28;20034;-71
2023/05/16 05:20:40;;;;;;;10.57;2.70;;;;;;;6.90;91.94;101983.28;4988858;28;20040;-71
2023/05/16 05:23:06;;;;;;;11.20;2.80;;;;;;;6.94;91.74;101985.84;4998389;28;20151;-71
2023/05/16 05:25:32;;;;;;;7.35;2.25;;;;;;;7.00;91.25;101994.63;4997287;28;20367;-71
2023/05/16 05:27:57;;;;;;;11.32;2.65;;;;;;;7.03;91.60;101978.25;4988460;28;20038;-72
2023/05/16 05:30:23;;;;;;;14.38;2.70;;;;;;;7.08;90.53;101989.78;5003857;28;20057;-71
2023/05/16 05:32:48;;;;;;;10.32;2.50;;;;;;;7.10;90.80;101984.31;4987764;28;20724;-71
2023/05/16 05:35:14;;;;;;;11.55;2.42;;;;;;;7.17;91.08;101991.22;4988525;28;20425;-71
2023/05/16 05:37:40;;;;;;;12.98;2.20;;;;;;;7.19;90.71;101997.47;4985810;28;20408;-72
2023/05/16 05:40:06;;;;;;;9.85;2.47;;;;;;;7.26;90.90;102000.81;4988644;28;20034;-71
2023/05/16 05:42:31;;;;;;;12.57;3.30;;;;;;;7.29;90.53;102007.00;5001542;28;20573;-71
2023/05/16 05:44:57;;;;;;;9.65;2.90;;;;;;;7.38;90.13;102008.44;4989219;28;20128;-71
2023/05/16 05:47:22;;;;;;;10.18;2.33;;;;;;;7.43;89.52;102006.44;4988540;28;20475;-71
2023/05/16 05:49:48;;;;;;;12.00;2.10;;;;;;;7.49;89.33;102003.47;4987438;28;20486;-71
2023/05/16 05:52:14;;;;;;;11.82;2.20;;;;;;;7.56;88.54;102007.69;4985994;28;20059;-72
2023/05/16 05:54:39;;;;;;;10.15;2.25;;;;;;;7.61;89.95;102007.50;4988671;28;20560;-72
2023/05/16 05:57:05;;;;;;;15.05;3.22;;;;;;;7.63;89.26;102009.19;4992854;28;20030;-72
2023/05/16 05:59:30;;;;;;;7.68;2.20;;;;;;;7.70;89.51;102015.25;4987943;28;20447;-71
2023/05/16 06:01:56;;;;;;;10.02;3.45;;;;;;;7.76;89.13;102019.53;4989019;28;20053;-71
2023/05/16 06:04:22;;;;;;;7.93;2.53;;;;;;;7.83;88.19;102030.06;4988363;28;20061;-71
2023/05/16 06:06:47;;;;;;;17.25;2.78;;;;;;;7.87;89.22;102020.81;4987437;28;20046;-71
2023/05/16 06:09:13;;;;;;;13.98;2.05;;;;;;;7.92;88.75;102026.06;4992913;28;20034;-71
2023/05/16 06:11:40;;;;;;;7.97;2.97;;;;;;;7.98;88.84;102022.22;4995055;28;20030;-71
2023/05/16 06:14:05;;;;;;;10.40;2.13;;;;;;;8.02;87.05;102027.44;4999859;28;20485;-71
2023/05/16 06:16:30;;;;;;;12.85;2.67;;;;;;;8.10;87.51;102032.53;5005541;28;20046;-72
2023/05/16 06:18:56;;;;;;;8.80;2.38;;;;;;;8.15;85.82;102038.63;4995435;28;20044;-71
2023/05/16 06:21:21;;;;;;;5.60;2.25;;;;;;;8.23;87.21;102038.31;4987206;28;20038;-71
2023/05/16 06:23:47;;;;;;;6.55;2.40;;;;;;;8.26;87.28;102046.31;5000479;28;20034;-71
2023/05/16 06:26:12;;;;;;;11.30;2.25;;;;;;;8.32;86.06;102038.78;4993425;28;20553;-71
2023/05/16 06:28:37;;;;;;;9.93;1.95;;;;;;;8.38;84.79;102034.94;4987640;28;20038;-71
2023/05/16 06:31:03;;;;;;;14.32;2.67;;;;;;;8.44;85.08;102037.41;5002954;28;20116;-71
2023/05/16 06:33:28;;;;;;;7.13;2.08;;;;;;;8.49;84.73;102029.94;5006101;28;20110;-71
2023/05/16 06:35:53;;;;;;;8.30;2.33;;;;;;;8.60;84.65;102037.59;4995869;28;20037;-71
2023/05/16 06:38:19;;;;;;;8.02;2.03;;;;;;;8.67;85.03;102044.47;4985384;28;20357;-71
2023/05/16 06:40:44;;;;;;;12.35;1.80;;;;;;;8.75;85.45;102044.13;4986760;28;20034;-71
2023/05/16 06:43:10;;;;;;;13.20;2.10;;;;;;;8.84;82.37;102041.88;4987247;28;20068;-71
2023/05/16 06:45:36;;;;;;;14.45;2.03;;;;;;;8.90;82.89;102036.16;4998041;28;20041;-71
2023/05/16 06:48:03;;;;;;;8.93;1.67;;;;;;;8.93;82.43;102038.75;5006934;28;20085;-72
2023/05/16 06:50:28;;;;;;;8.43;1.95;;;;;;;9.03;85.72;102041.03;4997648;28;20136;-71
2023/05/16 06:52:53;;;;;;;8.25;1.60;;;;;;;9.11;82.66;102047.88;5000903;28;20490;-71
2023/05/16 06:55:19;;;;;;;12.70;1.98;;;;;;;9.18;79.69;102048.44;4999409;28;20328;-71
2023/05/16 06:57:44;;;;;;;6.72;1.80;;;;;;;9.25;78.39;102043.63;4985361;28;20814;-71
2023/05/16 07:00:10;;;;;;;8.93;1.95;;;;;;;9.32;78.12;102048.66;4986196;28;20053;-71
2023/05/16 07:02:36;;;;;;;10.43;1.45;;;;;;;9.35;79.75;102042.22;4984915;28;20101;-71
2023/05/16 07:05:01;;;;;;;7.90;2.50;;;;;;;9.36;76.69;102042.13;4987446;28;20124;-71
2023/05/16 07:07:26;;;;;;;9.75;2.25;;;;;;;9.38;76.81;102039.38;4985170;28;20043;-70
2023/05/16 07:09:52;;;;;;;7.68;1.73;;;;;;;9.46;78.55;102042.56;4985205;28;20030;-71
2023/05/16 07:12:17;;;;;;;11.15;1.67;;;;;;;9.53;77.94;102037.75;4986333;28;20153;-71
2023/05/16 07:14:42;;;;;;;7.25;1.83;;;;;;;9.71;75.77;102044.97;4996571;28;20124;-71
2023/05/16 07:17:08;;;;;;;8.40;2.33;;;;;;;9.96;76.53;102041.91;5004753;28;20488;-71
2023/05/16 07:19:34;;;;;;;5.97;1.88;;;;;;;10.02;75.37;102044.31;5006850;28;20065;-71
2023/05/16 07:21:59;;;;;;;14.20;1.90;;;;;;;10.00;77.65;102048.94;5005866;28;20469;-71
2023/05/16 07:24:25;;;;;;;7.47;1.75;;;;;;;10.06;74.36;102053.19;4988266;28;20410;-71
2023/05/16 07:26:51;;;;;;;3.92;1.20;;;;;;;10.11;70.95;102048.41;4986607;28;20042;-71
2023/05/16 07:29:16;;;;;;;4.85;1.55;;;;;;;10.10;71.99;102055.69;4987329;28;20038;-71
2023/05/16 07:31:41;;;;;;;7.47;1.60;;;;;;;10.16;74.49;102059.91;4987734;28;20054;-71
2023/05/16 07:34:09;;;;;;;10.23;1.95;;;;;;;10.19;73.53;102065.22;4986886;28;20552;-71
2023/05/16 07:36:34;;;;;;;5.75;1.63;;;;;;;10.16;70.50;102062.63;4985928;28;20060;-71
2023/05/16 07:39:00;;;;;;;6.38;1.50;;;;;;;10.05;72.47;102065.03;4985045;28;20479;-73
2023/05/16 07:41:26;;;;;;;8.73;1.60;;;;;;;10.09;70.38;102059.34;4986715;28;20832;-71
2023/05/16 07:43:51;;;;;;;10.88;1.75;;;;;;;10.13;72.63;102062.81;4990814;28;20482;-71
2023/05/16 07:46:16;;;;;;;4.72;1.20;;;;;;;10.24;71.59;102057.72;5005258;28;20494;-71
2023/05/16 07:48:41;;;;;;;2.90;1.30;;;;;;;10.36;67.97;102067.97;5006389;28;20049;-71
2023/05/16 07:51:07;;;;;;;4.45;1.30;;;;;;;10.55;70.69;102065.19;5000258;28;20516;-71
2023/05/16 07:53:32;;;;;;;7.32;1.20;;;;;;;10.77;66.71;102077.63;4986088;28;20394;-71
2023/05/16 07:55:58;;;;;;;5.03;1.30;;;;;;;10.89;67.68;102066.09;4986664;28;20042;-71
2023/05/16 07:58:23;;;;;;;4.00;1.23;;;;;;;11.11;67.11;102061.22;4986668;28;20014;-71
2023/05/16 08:00:49;;;;;;;4.97;1.67;;;;;;;11.45;66.47;102062.94;4985410;28;20349;-70
2023/05/16 08:03:15;;;;;;;5.30;1.45;;;;;;;11.65;68.08;102058.19;4986277;28;20053;-71
2023/05/16 08:05:40;;;;;;;7.93;1.25;;;;;;;12.00;65.56;102061.63;4985448;28;20034;-71
2023/05/16 08:08:05;;;;;;;4.47;1.20;;;;;;;12.37;65.96;102064.91;4983821;28;20010;-71
2023/05/16 08:10:31;;;;;;;3.35;1.10;;;;;;;12.84;65.98;102058.34;4989025;28;20109;-71
2023/05/16 08:12:56;;;;;;;3.25;1.00;;;;;;;13.07;59.48;102065.97;4985849;28;20038;-71
2023/05/16 08:15:21;;;;;;;3.50;1.23;;;;;;;13.33;61.90;102053.41;4985223;28;20030;-71
2023/05/16 08:17:47;;;;;;;6.32;1.33;;;;;;;13.90;64.60;102066.97;4986340;28;20073;-71
2023/05/16 08:20:12;;;;;;;6.15;1.58;;;;;;;13.99;60.68;102060.88;4986094;28;20121;-71
2023/05/16 08:22:38;;;;;;;5.60;1.77;;;;;;;14.56;62.06;102061.63;4985762;28;20470;-71
2023/05/16 08:25:04;;;;;;;6.45;1.10;;;;;;;15.07;59.11;102067.13;4985390;28;20046;-71
2023/05/16 08:27:29;;;;;;;5.78;1.30;;;;;;;15.05;59.53;102064.47;4988637;28;20425;-71
2023/05/16 08:29:57;;;;;;;6.28;1.67;;;;;;;14.89;59.40;102066.59;4989762;28;20176;-71
2023/05/16 08:32:23;;;;;;;4.82;1.38;;;;;;;14.71;59.13;102072.38;4988404;28;20062;-70
2023/05/16 08:34:48;;;;;;;7.78;1.35;;;;;;;14.47;59.16;102063.09;4990037;28;20089;-70
2023/05/16 08:37:14;;;;;;;2.80;1.13;;;;;;;14.48;61.36;102064.88;5003018;28;20109;-73
2023/05/16 08:39:39;;;;;;;9.00;1.60;;;;;;;14.47;59.63;102063.09;4989673;28;20114;-72
2023/05/16 08:42:05;;;;;;;4.63;1.27;;;;;;;14.61;61.07;102063.03;4989154;28;20450;-72
2023/05/16 08:44:31;;;;;;;6.78;1.20;;;;;;;14.83;56.59;102056.03;4989796;28;20046;-72
2023/05/16 08:47:06;;;;;;;3.03;0.90;;;;;;;14.90;56.44;102060.09;4988719;28;20045;-71
2023/05/16 08:49:33;;;;;;;2.13;1.10;;;;;;;15.25;53.15;102038.38;4989391;28;20065;-72
2023/05/16 08:52:00;;;;;;;3.65;0.90;;;;;;;15.88;56.91;102045.56;4989056;28;20581;-71
2023/05/16 08:54:27;;;;;;;4.50;1.20;;;;;;;16.22;55.67;102053.97;4990034;28;20108;-71
2023/05/16 08:56:53;;;;;;;7.15;1.70;;;;;;;16.18;56.17;102055.19;4989283;28;20022;-71
2023/05/16 08:59:19;;;;;;;7.18;1.45;;;;;;;16.01;55.76;102051.03;4989355;28;20046;-72
2023/05/16 09:01:45;;;;;;;5.45;1.40;;;;;;;15.81;57.70;102058.03;4987843;28;20042;-71
2023/05/16 09:04:11;;;;;;;8.40;1.20;;;;;;;15.45;57.75;102053.38;4987910;28;20153;-71
2023/05/16 09:06:37;;;;;;;5.40;1.35;;;;;;;15.16;59.51;102053.63;5003758;28;20106;-71
2023/05/16 09:09:03;;;;;;;8.25;1.30;;;;;;;15.15;61.24;102057.34;4988166;28;20151;-71
2023/05/16 09:11:29;;;;;;;5.93;1.63;;;;;;;15.04;59.17;102062.72;5004610;28;20026;-72
2023/05/16 09:13:55;;;;;;;6.20;1.52;;;;;;;14.91;56.89;102059.13;4988396;28;20067;-72
2023/05/16 09:16:20;;;;;;;7.78;1.95;;;;;;;14.90;58.94;102060.09;4989144;28;20070;-71
2023/05/16 09:18:57;;;;;;;4.75;1.67;;;;;;;14.59;58.57;102065.00;5003362;28;20073;-71
2023/05/16 09:21:33;;;;;;;6.30;1.90;;;;;;;14.19;57.73;102061.38;4988671;28;20424;-72
2023/05/16 09:24:06;;;;;;;6.28;1.33;;;;;;;13.95;61.09;102069.41;4988923;28;20046;-71
2023/05/16 09:26:33;;;;;;;6.25;1.70;;;;;;;14.30;59.78;102058.78;4988758;28;20035;-72
2023/05/16 09:28:58;;;;;;;9.90;1.80;;;;;;;14.82;58.76;102057.03;4988261;28;20483;-71
2023/05/16 09:31:26;;;;;;;3.40;1.33;;;;;;;15.15;58.74;102053.72;4983907;28;20050;-71
2023/05/16 09:33:55;;;;;;;5.80;1.40;;;;;;;15.08;53.63;102060.66;4987526;28;20107;-71
2023/05/16 09:36:20;;;;;;;7.78;1.48;;;;;;;15.04;55.22;102051.78;4988091;28;20077;-71
2023/05/16 09:38:46;;;;;;;6.47;1.30;;;;;;;15.30;56.17;102053.50;4985800;28;20436;-72
2023/05/16 09:41:11;;;;;;;5.18;1.42;;;;;;;15.36;51.67;102054.91;4987898;28;20114;-71
2023/05/16 09:43:41;;;;;;;4.63;1.50;;;;;;;14.89;51.97;102053.75;4988646;28;20045;-72
2023/05/16 09:46:07;;;;;;;6.32;1.60;;;;;;;14.48;53.83;102051.19;4988378;28;20041;-72
2023/05/16 09:48:33;;;;;;;7.65;1.35;;;;;;;14.36;56.79;102052.91;4988401;28;20547;-71
2023/05/16 09:51:03;;;;;;;6.78;1.45;;;;;;;14.85;55.60;102062.31;4989413;28;20049;-72
2023/05/16 09:53:34;;;;;;;7.50;1.48;;;;;;;15.40;57.24;102058.31;4988359;28;20435;-71
2023/05/16 09:56:01;;;;;;;5.65;1.08;;;;;;;15.28;53.39;102058.22;4988501;28;20038;-72
2023/05/16 09:58:38;;;;;;;5.40;1.33;;;;;;;15.23;53.63;102054.94;4992950;28;20414;-71
2023/05/16 10:01:04;;;;;;;4.68;1.45;;;;;;;15.53;56.13;102056.44;4988422;28;20092;-71
2023/05/16 10:03:30;;;;;;;7.75;1.30;;;;;;;15.89;51.53;102068.41;4988229;28;20073;-71
2023/05/16 10:05:55;;;;;;;4.88;1.10;;;;;;;16.15;51.35;102059.06;4989330;28;20066;-71
2023/05/16 10:08:23;;;;;;;5.80;1.67;;;;;;;16.25;53.54;102059.25;4986420;28;20475;-71
2023/05/16 10:10:55;;;;;;;3.05;1.00;;;;;;;16.79;57.79;102048.59;4987964;28;20038;-71
2023/05/16 10:13:27;;;;;;;6.70;1.20;;;;;;;16.96;50.09;102055.47;4987842;28;20097;-72
2023/05/16 10:15:56;;;;;;;3.30;0.98;;;;;;;16.98;46.48;102045.25;4988185;28;20057;-70
2023/05/16 10:18:27;;;;;;;6.70;1.10;;;;;;;17.43;49.81;102049.84;4987647;28;20069;-69
2023/05/16 10:20:55;;;;;;;7.32;1.20;;;;;;;17.53;46.10;102046.25;4990360;28;20084;-72
2023/05/16 10:23:24;;;;;;;4.18;0.90;;;;;;;17.29;48.75;102045.50;4985285;28;20121;-71
2023/05/16 10:25:50;;;;;;;6.05;1.48;;;;;;;17.08;49.66;102053.63;4988120;28;20066;-71
2023/05/16 10:28:16;;;;;;;5.20;1.17;;;;;;;17.09;52.51;102056.22;4985981;28;20119;-71
2023/05/16 10:30:44;;;;;;;4.32;1.17;;;;;;;17.27;51.40;102053.00;4987908;28;20034;-71
2023/05/16 10:33:12;;;;;;;6.30;1.10;;;;;;;17.82;51.77;102052.09;4986023;28;20064;-71
2023/05/16 10:35:38;;;;;;;5.45;1.00;;;;;;;18.15;45.00;102039.22;5000075;28;20490;-71
2023/05/16 10:38:05;;;;;;;4.13;1.10;;;;;;;17.88;42.75;102036.94;4986106;28;20061;-71
2023/05/16 10:40:31;;;;;;;4.55;1.25;;;;;;;17.71;45.95;102042.94;4987303;28;20030;-72
2023/05/16 10:43:02;;;;;;;2.50;0.95;;;;;;;17.29;46.03;102043.59;5005976;28;20088;-71
2023/05/16 10:45:27;;;;;;;5.00;1.13;;;;;;;16.50;45.09;102058.19;5007924;28;20046;-71
2023/05/16 10:47:58;;;;;;;7.50;0.95;;;;;;;15.93;45.88;102053.47;5001647;28;20454;-71
2023/05/16 10:50:34;;;;;;;5.43;1.25;;;;;;;15.90;47.40;102061.91;4986189;28;20035;-72
2023/05/16 10:53:20;;;;;;;8.43;1.70;;;;;;;16.27;52.26;102049.91;4986366;28;20443;-71
2023/05/16 10:55:58;;;;;;;6.32;1.45;;;;;;;16.85;50.10;102046.34;4986718;28;20148;-72
2023/05/16 10:58:29;;;;;;;7.82;1.27;;;;;;;17.56;51.54;102047.84;4986608;28;20125;-71
2023/05/16 11:01:20;;;;;;;7.00;1.60;;;;;;;17.87;46.13;102048.97;4988065;28;20620;-72
2023/05/16 11:03:57;;;;;;;7.63;1.13;;;;;;;17.99;45.31;102041.53;4998643;28;20045;-71
2023/05/16 11:06:24;;;;;;;6.40;1.40;;;;;;;17.62;49.40;102044.56;5005039;28;20038;-71
2023/05/16 11:09:09;;;;;;;5.40;1.38;;;;;;;17.40;47.54;102058.38;5003349;28;20026;-71
2023/05/16 11:11:50;;;;;;;5.22;1.30;;;;;;;17.58;48.57;102043.97;4991379;28;20041;-71
2023/05/16 11:14:25;;;;;;;4.30;1.30;;;;;;;17.71;49.02;102046.56;4987180;28;20535;-72
2023/05/16 11:17:02;;;;;;;3.33;1.08;;;;;;;17.54;47.34;102056.25;4987357;28;20076;-71
2023/05/16 11:19:31;;;;;;;3.63;1.25;;;;;;;17.14;44.68;102049.50;4987411;28;20048;-71
2023/05/16 11:22:06;;;;;;;4.50;1.27;;;;;;;16.96;49.61;102047.22;4987113;28;20026;-71
2023/05/16 11:24:33;;;;;;;5.60;1.25;;;;;;;16.89;47.68;102051.47;4985487;28;20057;-71
2023/05/16 11:27:00;;;;;;;4.13;1.38;;;;;;;16.90;46.96;102052.34;4987102;28;20034;-71